createdAt,value
2023-04-21T00:00:03.527Z,95167
2023-04-21T00:01:13.188Z,95168
2023-04-21T00:02:20.954Z,95161
2023-04-21T00:03:29.693Z,95164
2023-04-21T00:04:38.472Z,95163
2023-04-21T00:05:47.158Z,95157
2023-04-21T00:06:56.772Z,95153
2023-04-21T00:08:05.457Z,95153
2023-04-21T00:09:15.251Z,95151
2023-04-21T00:10:24.958Z,95149
2023-04-21T00:11:32.629Z,95145
2023-04-21T00:12:41.351Z,95146
2023-04-21T00:13:50.038Z,95146
2023-04-21T00:14:58.750Z,95148
2023-04-21T00:16:08.493Z,95145
2023-04-21T00:17:17.195Z,95146
2023-04-21T00:18:25.912Z,95145
2023-04-21T00:19:35.637Z,95143
2023-04-21T00:20:44.341Z,95142
2023-04-21T00:21:52.077Z,95145
2023-04-21T00:23:01.758Z,95141
2023-04-21T00:24:10.510Z,95142
2023-04-21T00:25:19.279Z,95141
2023-04-21T00:26:26.978Z,95145
2023-04-21T00:27:35.682Z,95138
2023-04-21T00:28:46.438Z,95136
2023-04-21T00:29:54.165Z,95140
2023-04-21T00:31:03.864Z,95144
2023-04-21T00:32:12.562Z,95149
2023-04-21T00:33:21.406Z,95152
2023-04-21T00:34:30.102Z,95151
2023-04-21T00:35:37.869Z,95147
2023-04-21T00:36:46.586Z,95143
2023-04-21T00:37:56.264Z,95143
2023-04-21T00:39:04.998Z,95144
2023-04-21T00:40:13.752Z,95140
2023-04-21T00:41:23.443Z,95136
2023-04-21T00:42:32.199Z,95131
2023-04-21T00:43:41.886Z,95131
2023-04-21T00:44:50.649Z,95129
2023-04-21T00:45:59.395Z,95138
2023-04-21T00:47:09.064Z,95135
2023-04-21T00:48:17.847Z,95139
2023-04-21T00:49:26.569Z,95131
2023-04-21T00:50:35.782Z,95131
2023-04-21T00:51:44.470Z,95132
2023-04-21T00:52:54.230Z,95135
2023-04-21T00:54:02.942Z,95134
2023-04-21T00:55:12.681Z,95130
2023-04-21T00:56:22.416Z,95132
2023-04-21T00:57:30.165Z,95131
2023-04-21T00:58:39.883Z,95132
2023-04-21T00:59:48.599Z,95129
2023-04-21T01:00:57.378Z,95132
2023-04-21T01:02:07.209Z,95127
2023-04-21T01:03:16.056Z,95127
2023-04-21T01:04:25.776Z,95115
2023-04-21T01:05:35.452Z,95112
2023-04-21T01:06:43.294Z,95113
2023-04-21T01:07:54.320Z,95111
2023-04-21T01:09:05.299Z,95106
2023-04-21T01:10:14.900Z,95104
2023-04-21T01:11:24.231Z,95105
2023-04-21T01:12:31.917Z,95111
2023-04-21T01:13:41.586Z,95115
2023-04-21T01:14:51.275Z,95111
2023-04-21T01:15:59.011Z,95105
2023-04-21T01:17:06.713Z,95107
2023-04-21T01:18:15.413Z,95114
2023-04-21T01:19:24.068Z,95127
2023-04-21T01:20:33.854Z,95124
2023-04-21T01:21:41.535Z,95110
2023-04-21T01:22:51.222Z,95102
2023-04-21T01:24:00.925Z,95108
2023-04-21T01:25:09.709Z,95111
2023-04-21T01:26:18.337Z,95106
2023-04-21T01:27:28.064Z,95110
2023-04-21T01:28:36.768Z,95108
2023-04-21T01:29:46.462Z,95105
2023-04-21T01:30:55.211Z,95105
2023-04-21T01:32:03.936Z,95110
2023-04-21T01:33:12.687Z,95123
2023-04-21T01:34:22.327Z,95125
2023-04-21T01:35:32.072Z,95124
2023-04-21T01:36:41.760Z,95121
2023-04-21T01:37:50.464Z,95122
2023-04-21T01:38:59.177Z,95125
2023-04-21T01:40:08.891Z,95120
2023-04-21T01:41:17.603Z,95112
2023-04-21T01:42:27.255Z,95120
2023-04-21T01:43:35.948Z,95127
2023-04-21T01:44:44.627Z,95131
2023-04-21T01:45:54.389Z,95132
2023-04-21T01:47:03.033Z,95133
2023-04-21T01:48:11.826Z,95133
2023-04-21T01:49:21.468Z,95127
2023-04-21T01:50:30.177Z,95132
2023-04-21T01:51:38.893Z,95132
2023-04-21T01:52:47.626Z,95128
2023-04-21T01:53:57.318Z,95130
2023-04-21T01:55:07.137Z,95122
2023-04-21T01:56:15.872Z,95123
2023-04-21T01:57:24.608Z,95120
2023-04-21T01:58:34.301Z,95121
2023-04-21T01:59:41.978Z,95115
2023-04-21T02:00:50.685Z,95112
2023-04-21T02:01:59.520Z,95120
2023-04-21T02:03:08.281Z,95119
2023-04-21T02:04:17.853Z,95119
2023-04-21T02:05:26.517Z,95116
2023-04-21T02:06:35.200Z,95121
2023-04-21T02:07:44.951Z,95121
2023-04-21T02:08:53.641Z,95121
2023-04-21T02:10:03.442Z,95124
2023-04-21T02:11:12.210Z,95126
2023-04-21T02:12:20.941Z,95130
2023-04-21T02:13:30.836Z,95118
2023-04-21T02:14:40.544Z,95115
2023-04-21T02:15:50.362Z,95116
2023-04-21T02:17:00.149Z,95123
2023-04-21T02:18:07.855Z,95122
2023-04-21T02:19:16.635Z,95124
2023-04-21T02:20:25.330Z,95120
2023-04-21T02:21:34.043Z,95108
2023-04-21T02:22:43.731Z,95110
2023-04-21T02:23:52.428Z,95106
2023-04-21T02:25:01.132Z,95104
2023-04-21T02:26:10.940Z,95109
2023-04-21T02:27:18.652Z,95106
2023-04-21T02:28:27.348Z,95101
2023-04-21T02:29:36.069Z,95099
2023-04-21T02:30:44.756Z,95099
2023-04-21T02:31:59.189Z,95097
2023-04-21T02:33:05.148Z,95098
2023-04-21T02:34:14.819Z,95099
2023-04-21T02:35:23.550Z,95097
2023-04-21T02:36:32.268Z,95098
2023-04-21T02:37:40.956Z,95100
2023-04-21T02:38:50.753Z,95092
2023-04-21T02:39:59.406Z,95091
2023-04-21T02:41:09.121Z,95090
2023-04-21T02:42:16.816Z,95088
2023-04-21T02:43:25.531Z,95085
2023-04-21T02:44:35.257Z,95083
2023-04-21T02:45:43.963Z,95082
2023-04-21T02:46:52.786Z,95079
2023-04-21T02:48:01.395Z,95084
2023-04-21T02:49:10.071Z,95082
2023-04-21T02:50:18.788Z,95080
2023-04-21T02:51:26.481Z,95075
2023-04-21T02:52:36.188Z,95074
2023-04-21T02:53:45.886Z,95073
2023-04-21T02:54:54.565Z,95074
2023-04-21T02:56:03.363Z,95073
2023-04-21T02:57:12.133Z,95076
2023-04-21T02:58:21.810Z,95080
2023-04-21T02:59:32.527Z,95087
2023-04-21T03:00:40.204Z,95083
2023-04-21T03:01:48.932Z,95089
2023-04-21T03:02:58.693Z,95091
2023-04-21T03:04:08.358Z,95091
2023-04-21T03:05:16.987Z,95095
2023-04-21T03:06:25.779Z,95093
2023-04-21T03:07:34.571Z,95086
2023-04-21T03:08:44.256Z,95095
2023-04-21T03:09:51.956Z,95090
2023-04-21T03:11:00.713Z,95088
2023-04-21T03:12:10.525Z,95090
2023-04-21T03:13:19.242Z,95091
2023-04-21T03:14:28.996Z,95097
2023-04-21T03:15:38.654Z,95096
2023-04-21T03:16:47.412Z,95093
2023-04-21T03:17:57.148Z,95090
2023-04-21T03:19:06.754Z,95094
2023-04-21T03:20:17.469Z,95091
2023-04-21T03:21:27.782Z,95093
2023-04-21T03:22:36.337Z,95092
2023-04-21T03:23:46.048Z,95095
2023-04-21T03:24:54.787Z,95098
2023-04-21T03:26:04.487Z,95100
2023-04-21T03:27:12.191Z,95099
2023-04-21T03:28:20.860Z,95095
2023-04-21T03:29:30.562Z,95096
2023-04-21T03:30:38.265Z,95091
2023-04-21T03:31:48.010Z,95087
2023-04-21T03:32:56.737Z,95091
2023-04-21T03:34:06.420Z,95088
2023-04-21T03:35:16.064Z,95087
2023-04-21T03:36:24.771Z,95087
2023-04-21T03:37:33.489Z,95083
2023-04-21T03:38:43.184Z,95078
2023-04-21T03:39:51.867Z,95074
2023-04-21T03:41:01.550Z,95079
2023-04-21T03:42:10.276Z,95080
2023-04-21T03:43:19.995Z,95076
2023-04-21T03:44:29.746Z,95080
2023-04-21T03:45:37.418Z,95073
2023-04-21T03:46:46.069Z,95083
2023-04-21T03:47:55.963Z,95083
2023-04-21T03:49:03.896Z,95089
2023-04-21T03:50:12.173Z,95090
2023-04-21T03:51:21.867Z,95094
2023-04-21T03:52:31.615Z,95090
2023-04-21T03:53:41.302Z,95092
2023-04-21T03:54:49.980Z,95094
2023-04-21T03:55:58.663Z,95093
2023-04-21T03:57:25.451Z,95094
2023-04-21T03:58:34.162Z,95094
2023-04-21T03:59:43.845Z,95098
2023-04-21T04:00:52.594Z,95091
2023-04-21T04:02:01.340Z,95097
2023-04-21T04:03:11.153Z,95099
2023-04-21T04:04:18.908Z,95102
2023-04-21T04:05:27.459Z,95098
2023-04-21T04:06:36.202Z,95095
2023-04-21T04:07:44.904Z,95095
2023-04-21T04:08:53.640Z,95089
2023-04-21T04:10:03.337Z,95096
2023-04-21T04:11:11.012Z,95093
2023-04-21T04:12:20.037Z,95091
2023-04-21T04:13:29.816Z,95091
2023-04-21T04:14:38.526Z,95093
2023-04-21T04:15:47.243Z,95097
2023-04-21T04:16:55.904Z,95096
2023-04-21T04:18:04.597Z,95099
2023-04-21T04:19:14.636Z,95098
2023-04-21T04:20:23.276Z,95103
2023-04-21T04:21:32.977Z,95111
2023-04-21T04:22:42.611Z,95114
2023-04-21T04:23:50.269Z,95122
2023-04-21T04:24:59.920Z,95114
2023-04-21T04:26:08.580Z,95118
2023-04-21T04:27:17.265Z,95109
2023-04-21T04:28:26.928Z,95110
2023-04-21T04:29:33.573Z,95106
2023-04-21T04:30:42.233Z,95108
2023-04-21T04:31:51.915Z,95108
2023-04-21T04:33:00.650Z,95107
2023-04-21T04:34:09.264Z,95104
2023-04-21T04:35:17.926Z,95104
2023-04-21T04:36:27.614Z,95097
2023-04-21T04:37:36.305Z,95098
2023-04-21T04:38:45.973Z,95099
2023-04-21T04:39:54.622Z,95102
2023-04-21T04:41:04.298Z,95102
2023-04-21T04:42:12.989Z,95101
2023-04-21T04:43:22.701Z,95099
2023-04-21T04:44:32.354Z,95104
2023-04-21T04:45:41.048Z,95102
2023-04-21T04:46:50.760Z,95102
2023-04-21T04:48:00.479Z,95101
2023-04-21T04:49:09.106Z,95096
2023-04-21T04:50:18.811Z,95094
2023-04-21T04:51:27.504Z,95095
2023-04-21T04:52:36.221Z,95097
2023-04-21T04:53:44.943Z,95100
2023-04-21T04:54:53.636Z,95103
2023-04-21T04:56:02.333Z,95107
2023-04-21T04:57:10.014Z,95104
2023-04-21T04:58:19.697Z,95111
2023-04-21T04:59:30.239Z,95118
2023-04-21T05:00:38.137Z,95110
2023-04-21T05:01:46.853Z,95114
2023-04-21T05:02:54.587Z,95115
2023-04-21T05:04:04.498Z,95115
2023-04-21T05:05:13.945Z,95116
2023-04-21T05:06:21.615Z,95115
2023-04-21T05:07:30.344Z,95115
2023-04-21T05:08:40.013Z,95114
2023-04-21T05:09:47.751Z,95115
2023-04-21T05:10:56.481Z,95120
2023-04-21T05:12:05.149Z,95120
2023-04-21T05:13:13.849Z,95120
2023-04-21T05:14:23.539Z,95124
2023-04-21T05:15:31.240Z,95128
2023-04-21T05:16:39.970Z,95129
2023-04-21T05:17:49.687Z,95131
2023-04-21T05:18:58.336Z,95132
2023-04-21T05:20:07.000Z,95131
2023-04-21T05:21:15.686Z,95131
2023-04-21T05:22:24.414Z,95130
2023-04-21T05:23:34.101Z,95136
2023-04-21T05:24:41.855Z,95136
2023-04-21T05:25:51.567Z,95135
2023-04-21T05:27:01.749Z,95144
2023-04-21T05:28:09.408Z,95140
2023-04-21T05:29:19.095Z,95143
2023-04-21T05:30:27.766Z,95137
2023-04-21T05:31:35.486Z,95136
2023-04-21T05:32:45.158Z,95136
2023-04-21T05:33:54.829Z,95137
2023-04-21T05:35:04.520Z,95135
2023-04-21T05:36:14.164Z,95138
2023-04-21T05:37:22.879Z,95138
2023-04-21T05:38:31.555Z,95138
2023-04-21T05:39:40.250Z,95141
2023-04-21T05:40:49.946Z,95140
2023-04-21T05:41:59.695Z,95139
2023-04-21T05:43:09.387Z,95137
2023-04-21T05:44:18.328Z,95138
2023-04-21T05:45:27.764Z,95136
2023-04-21T05:46:35.598Z,95137
2023-04-21T05:47:44.341Z,95129
2023-04-21T05:48:54.009Z,95126
2023-04-21T05:50:03.661Z,95130
2023-04-21T05:51:13.382Z,95126
2023-04-21T05:52:22.064Z,95124
2023-04-21T05:53:30.738Z,95124
2023-04-21T05:54:40.410Z,95131
2023-04-21T05:55:49.117Z,95131
2023-04-21T05:56:56.796Z,95132
2023-04-21T05:58:05.499Z,95131
2023-04-21T05:59:15.154Z,95133
2023-04-21T06:00:24.854Z,95127
2023-04-21T06:01:34.523Z,95121
2023-04-21T06:02:44.299Z,95122
2023-04-21T06:03:52.054Z,95118
2023-04-21T06:05:01.820Z,95125
2023-04-21T06:06:11.310Z,95126
2023-04-21T06:07:21.008Z,95124
2023-04-21T06:08:29.689Z,95120
2023-04-21T06:09:38.445Z,95121
2023-04-21T06:10:48.136Z,95122
2023-04-21T06:11:55.878Z,95119
2023-04-21T06:13:04.567Z,95113
2023-04-21T06:14:13.249Z,95119
2023-04-21T06:15:22.946Z,95118
2023-04-21T06:16:33.652Z,95117
2023-04-21T06:17:43.443Z,95124
2023-04-21T06:18:53.083Z,95124
2023-04-21T06:20:02.779Z,95120
2023-04-21T06:21:11.431Z,95126
2023-04-21T06:22:20.180Z,95126
2023-04-21T06:23:28.930Z,95124
2023-04-21T06:24:38.581Z,95122
2023-04-21T06:25:48.261Z,95119
2023-04-21T06:26:56.949Z,95118
2023-04-21T06:28:04.699Z,95117
2023-04-21T06:29:13.365Z,95123
2023-04-21T06:30:21.026Z,95123
2023-04-21T06:31:29.697Z,95120
2023-04-21T06:32:39.377Z,95118
2023-04-21T06:33:48.027Z,95118
2023-04-21T06:34:57.697Z,95115
2023-04-21T06:36:05.424Z,95115
2023-04-21T06:37:14.112Z,95112
2023-04-21T06:38:23.837Z,95110
2023-04-21T06:39:32.460Z,95111
2023-04-21T06:40:41.137Z,95108
2023-04-21T06:41:49.799Z,95109
2023-04-21T06:42:58.533Z,95109
2023-04-21T06:44:08.203Z,95112
2023-04-21T06:45:15.883Z,95116
2023-04-21T06:46:24.610Z,95120
2023-04-21T06:47:34.275Z,95114
2023-04-21T06:48:41.939Z,95112
2023-04-21T06:49:50.609Z,95109
2023-04-21T06:51:00.285Z,95111
2023-04-21T06:52:08.961Z,95114
2023-04-21T06:53:18.646Z,95109
2023-04-21T06:54:26.309Z,95115
2023-04-21T06:55:34.984Z,95113
2023-04-21T06:56:44.655Z,95112
2023-04-21T06:57:52.336Z,95112
2023-04-21T06:59:01.018Z,95117
2023-04-21T07:00:10.717Z,95115
2023-04-21T07:01:20.448Z,95116
2023-04-21T07:02:30.269Z,95119
2023-04-21T07:03:39.818Z,95115
2023-04-21T07:04:48.476Z,95113
2023-04-21T07:05:58.116Z,95116
2023-04-21T07:07:06.788Z,95113
2023-04-21T07:08:15.477Z,95117
2023-04-21T07:09:24.173Z,95115
2023-04-21T07:10:32.871Z,95120
2023-04-21T07:11:42.607Z,95118
2023-04-21T07:12:50.333Z,95120
2023-04-21T07:13:59.402Z,95120
2023-04-21T07:15:09.096Z,95121
2023-04-21T07:16:16.801Z,95112
2023-04-21T07:17:25.509Z,95112
2023-04-21T07:18:34.173Z,95109
2023-04-21T07:19:42.982Z,95112
2023-04-21T07:20:52.661Z,95111
2023-04-21T07:22:00.337Z,95105
2023-04-21T07:23:10.022Z,95103
2023-04-21T07:24:18.712Z,95106
2023-04-21T07:25:27.404Z,95103
2023-04-21T07:26:36.067Z,95103
2023-04-21T07:27:44.774Z,95108
2023-04-21T07:28:54.459Z,95105
2023-04-21T07:30:04.122Z,95111
2023-04-21T07:31:11.805Z,95103
2023-04-21T07:32:20.524Z,95101
2023-04-21T07:33:30.218Z,95102
2023-04-21T07:34:37.963Z,95105
2023-04-21T07:35:46.583Z,95103
2023-04-21T07:36:55.264Z,95104
2023-04-21T07:38:03.973Z,95103
2023-04-21T07:39:13.643Z,95107
2023-04-21T07:40:22.336Z,95104
2023-04-21T07:41:31.998Z,95106
2023-04-21T07:42:41.696Z,95106
2023-04-21T07:43:49.828Z,95105
2023-04-21T07:44:58.019Z,95109
2023-04-21T07:46:06.711Z,95106
2023-04-21T07:47:15.372Z,95106
2023-04-21T07:48:25.088Z,95110
2023-04-21T07:49:32.783Z,95107
2023-04-21T07:50:42.475Z,95108
2023-04-21T07:51:52.144Z,95111
2023-04-21T07:53:00.826Z,95108
2023-04-21T07:54:10.503Z,95109
2023-04-21T07:55:19.247Z,95106
2023-04-21T07:56:28.985Z,95109
2023-04-21T07:57:38.667Z,95110
2023-04-21T07:58:46.338Z,95112
2023-04-21T07:59:56.002Z,95115
2023-04-21T08:01:05.698Z,95109
2023-04-21T08:02:15.432Z,95116
2023-04-21T08:03:24.796Z,95114
2023-04-21T08:04:33.909Z,95116
2023-04-21T08:05:43.650Z,95111
2023-04-21T08:06:52.454Z,95108
2023-04-21T08:08:02.064Z,95109
2023-04-21T08:09:09.642Z,95107
2023-04-21T08:10:18.336Z,95112
2023-04-21T08:11:28.032Z,95116
2023-04-21T08:12:36.795Z,95118
2023-04-21T08:13:45.515Z,95118
2023-04-21T08:14:55.119Z,95122
2023-04-21T08:16:03.790Z,95116
2023-04-21T08:17:13.464Z,95115
2023-04-21T08:18:22.555Z,95116
2023-04-21T08:19:29.835Z,95118
2023-04-21T08:20:39.572Z,95119
2023-04-21T08:21:49.263Z,95120
2023-04-21T08:22:59.078Z,95122
2023-04-21T08:24:08.652Z,95126
2023-04-21T08:25:17.261Z,95123
2023-04-21T08:26:26.954Z,95124
2023-04-21T08:27:34.623Z,95124
2023-04-21T08:28:43.312Z,95119
2023-04-21T08:29:52.987Z,95121
2023-04-21T08:31:01.691Z,95123
2023-04-21T08:32:11.401Z,95123
2023-04-21T08:33:20.077Z,95121
2023-04-21T08:34:28.956Z,95121
2023-04-21T08:35:38.417Z,95123
2023-04-21T08:36:48.120Z,95120
2023-04-21T08:37:56.826Z,95113
2023-04-21T08:39:05.546Z,95120
2023-04-21T08:40:14.193Z,95120
2023-04-21T08:41:23.850Z,95118
2023-04-21T08:42:32.568Z,95125
2023-04-21T08:43:42.268Z,95124
2023-04-21T08:44:52.064Z,95122
2023-04-21T08:46:00.844Z,95123
2023-04-21T08:47:09.577Z,95123
2023-04-21T08:48:18.307Z,95126
2023-04-21T08:49:28.003Z,95127
2023-04-21T08:50:37.725Z,95125
2023-04-21T08:51:44.431Z,95126
2023-04-21T08:52:53.057Z,95127
2023-04-21T08:54:01.818Z,95121
2023-04-21T08:55:09.492Z,95121
2023-04-21T08:56:18.153Z,95117
2023-04-21T08:57:26.817Z,95119
2023-04-21T08:58:36.506Z,95117
2023-04-21T08:59:46.171Z,95115
2023-04-21T09:00:54.861Z,95117
2023-04-21T09:02:03.576Z,95114
2023-04-21T09:03:19.599Z,95114
2023-04-21T09:04:24.009Z,95121
2023-04-21T09:05:32.798Z,95119
2023-04-21T09:06:43.287Z,95114
2023-04-21T09:07:51.962Z,95111
2023-04-21T09:09:01.709Z,95112
2023-04-21T09:10:11.369Z,95113
2023-04-21T09:11:21.112Z,95113
2023-04-21T09:12:30.780Z,95109
2023-04-21T09:13:39.472Z,95110
2023-04-21T09:14:49.162Z,95106
2023-04-21T09:15:58.872Z,95105
2023-04-21T09:17:08.600Z,95107
2023-04-21T09:18:18.301Z,95105
2023-04-21T09:19:25.964Z,95100
2023-04-21T09:20:35.676Z,95109
2023-04-21T09:21:45.377Z,95105
2023-04-21T09:22:53.272Z,95105
2023-04-21T09:24:01.927Z,95106
2023-04-21T09:25:10.623Z,95106
2023-04-21T09:26:19.277Z,95105
2023-04-21T09:27:29.003Z,95107
2023-04-21T09:28:38.705Z,95110
2023-04-21T09:29:47.413Z,95107
2023-04-21T09:30:58.115Z,95104
2023-04-21T09:32:05.774Z,95102
2023-04-21T09:33:24.939Z,95106
2023-04-21T09:34:26.184Z,95101
2023-04-21T09:35:34.836Z,95104
2023-04-21T09:36:44.513Z,95102
2023-04-21T09:37:53.263Z,95105
2023-04-21T09:39:25.548Z,95106
2023-04-21T09:40:13.611Z,95103
2023-04-21T09:41:22.218Z,95101
2023-04-21T09:42:30.912Z,95105
2023-04-21T09:43:41.595Z,95101
2023-04-21T09:44:53.694Z,95105
2023-04-21T09:46:00.928Z,95108
2023-04-21T09:47:08.567Z,95107
2023-04-21T09:48:19.465Z,95103
2023-04-21T09:49:28.048Z,95104
2023-04-21T09:51:07.467Z,95107
2023-04-21T09:52:05.699Z,95106
2023-04-21T09:52:57.001Z,95106
2023-04-21T09:54:11.001Z,95102
2023-04-21T09:55:16.434Z,95100
2023-04-21T09:56:25.089Z,95095
2023-04-21T09:57:34.801Z,95094
2023-04-21T09:58:44.473Z,95094
2023-04-21T09:59:53.119Z,95096
2023-04-21T10:01:01.837Z,95098
2023-04-21T10:02:11.648Z,95097
2023-04-21T10:03:19.303Z,95097
2023-04-21T10:04:29.466Z,95098
2023-04-21T10:05:41.218Z,95099
2023-04-21T10:06:48.277Z,95098
2023-04-21T10:07:56.954Z,95097
2023-04-21T10:09:05.620Z,95099
2023-04-21T10:10:14.330Z,95103
2023-04-21T10:11:23.980Z,95093
2023-04-21T10:12:32.641Z,95099
2023-04-21T10:13:41.386Z,95100
2023-04-21T10:14:51.016Z,95097
2023-04-21T10:15:58.770Z,95097
2023-04-21T10:17:07.456Z,95092
2023-04-21T10:18:17.115Z,95087
2023-04-21T10:19:25.899Z,95082
2023-04-21T10:20:35.530Z,95079
2023-04-21T10:21:43.252Z,95079
2023-04-21T10:22:51.905Z,95074
2023-04-21T10:24:01.615Z,95074
2023-04-21T10:25:11.294Z,95070
2023-04-21T10:26:20.968Z,95075
2023-04-21T10:27:29.636Z,95077
2023-04-21T10:28:38.335Z,95080
2023-04-21T10:29:56.454Z,95073
2023-04-21T10:30:58.698Z,95077
2023-04-21T10:32:09.324Z,95075
2023-04-21T10:33:19.033Z,95074
2023-04-21T10:34:27.740Z,95074
2023-04-21T10:35:36.440Z,95075
2023-04-21T10:36:45.107Z,95072
2023-04-21T10:37:54.771Z,95072
2023-04-21T10:39:04.447Z,95075
2023-04-21T10:40:12.195Z,95072
2023-04-21T10:41:20.869Z,95075
2023-04-21T10:42:30.566Z,95076
2023-04-21T10:43:39.223Z,95075
2023-04-21T10:44:47.911Z,95079
2023-04-21T10:45:56.611Z,95078
2023-04-21T10:47:05.267Z,95070
2023-04-21T10:48:14.924Z,95074
2023-04-21T10:49:23.588Z,95074
2023-04-21T10:50:33.262Z,95070
2023-04-21T10:51:42.897Z,95075
2023-04-21T10:52:51.612Z,95076
2023-04-21T10:54:00.317Z,95071
2023-04-21T10:55:08.934Z,95067
2023-04-21T10:56:17.633Z,95076
2023-04-21T10:57:27.308Z,95073
2023-04-21T10:58:35.001Z,95070
2023-04-21T10:59:42.696Z,95066
2023-04-21T11:00:52.390Z,95063
2023-04-21T11:02:00.331Z,95064
2023-04-21T11:03:09.970Z,95059
2023-04-21T11:04:20.055Z,95062
2023-04-21T11:05:29.231Z,95059
2023-04-21T11:06:38.044Z,95066
2023-04-21T11:07:45.725Z,95060
2023-04-21T11:08:54.409Z,95056
2023-04-21T11:10:04.206Z,95057
2023-04-21T11:11:11.878Z,95056
2023-04-21T11:12:20.531Z,95059
2023-04-21T11:13:30.233Z,95051
2023-04-21T11:14:39.921Z,95046
2023-04-21T11:15:49.612Z,95050
2023-04-21T11:16:57.298Z,95044
2023-04-21T11:18:06.055Z,95046
2023-04-21T11:19:15.679Z,95046
2023-04-21T11:20:23.424Z,95049
2023-04-21T11:21:32.078Z,95044
2023-04-21T11:22:40.761Z,95044
2023-04-21T11:23:49.412Z,95041
2023-04-21T11:24:59.152Z,95044
2023-04-21T11:26:07.853Z,95040
2023-04-21T11:27:16.519Z,95045
2023-04-21T11:28:26.198Z,95040
2023-04-21T11:29:34.912Z,95040
2023-04-21T11:30:43.614Z,95034
2023-04-21T11:31:52.337Z,95039
2023-04-21T11:33:01.057Z,95039
2023-04-21T11:34:10.735Z,95040
2023-04-21T11:35:20.395Z,95037
2023-04-21T11:36:29.068Z,95031
2023-04-21T11:37:38.749Z,95032
2023-04-21T11:38:46.438Z,95034
2023-04-21T11:39:55.141Z,95030
2023-04-21T11:41:03.835Z,95035
2023-04-21T11:42:12.519Z,95029
2023-04-21T11:43:22.213Z,95025
2023-04-21T11:44:31.913Z,95023
2023-04-21T11:45:40.587Z,95022
2023-04-21T11:46:50.314Z,95024
2023-04-21T11:47:59.002Z,95027
2023-04-21T11:49:08.633Z,95025
2023-04-21T11:50:17.354Z,95030
2023-04-21T11:51:26.997Z,95027
2023-04-21T11:52:36.723Z,95031
2023-04-21T11:53:44.413Z,95027
2023-04-21T11:54:54.151Z,95028
2023-04-21T11:56:03.813Z,95034
2023-04-21T11:57:12.477Z,95031
2023-04-21T11:58:21.166Z,95030
2023-04-21T11:59:30.858Z,95032
2023-04-21T12:00:38.591Z,95030
2023-04-21T12:01:47.238Z,95029
2023-04-21T12:02:57.113Z,95030
2023-04-21T12:04:05.808Z,95035
2023-04-21T12:05:15.258Z,95033
2023-04-21T12:06:24.071Z,95032
2023-04-21T12:07:33.592Z,95031
2023-04-21T12:08:43.268Z,95027
2023-04-21T12:09:50.919Z,95027
2023-04-21T12:11:00.650Z,95026
2023-04-21T12:12:10.346Z,95030
2023-04-21T12:13:18.229Z,95023
2023-04-21T12:14:26.706Z,95030
2023-04-21T12:15:35.406Z,95027
2023-04-21T12:16:44.134Z,95029
2023-04-21T12:17:53.761Z,95018
2023-04-21T12:19:01.408Z,95033
2023-04-21T12:20:10.182Z,95033
2023-04-21T12:21:19.765Z,95033
2023-04-21T12:22:27.460Z,95023
2023-04-21T12:23:36.110Z,95030
2023-04-21T12:24:44.811Z,95026
2023-04-21T12:25:53.543Z,95031
2023-04-21T12:27:03.214Z,95032
2023-04-21T12:28:11.904Z,95035
2023-04-21T12:29:20.578Z,95034
2023-04-21T12:30:30.458Z,95031
2023-04-21T12:31:41.020Z,95036
2023-04-21T12:32:50.686Z,95035
2023-04-21T12:33:59.416Z,95037
2023-04-21T12:35:08.086Z,95038
2023-04-21T12:36:17.818Z,95039
2023-04-21T12:37:25.486Z,95038
2023-04-21T12:38:35.175Z,95040
2023-04-21T12:39:44.831Z,95037
2023-04-21T12:40:52.520Z,95045
2023-04-21T12:42:02.210Z,95045
2023-04-21T12:43:10.894Z,95044
2023-04-21T12:44:19.533Z,95037
2023-04-21T12:45:30.245Z,95035
2023-04-21T12:46:37.945Z,95030
2023-04-21T12:47:47.617Z,95029
2023-04-21T12:48:57.240Z,95028
2023-04-21T12:50:05.961Z,95030
2023-04-21T12:51:14.622Z,95037
2023-04-21T12:52:23.321Z,95029
2023-04-21T12:53:31.961Z,95034
2023-04-21T12:54:41.643Z,95027
2023-04-21T12:56:01.265Z,95029
2023-04-21T12:57:00.948Z,95027
2023-04-21T12:58:10.654Z,95022
2023-04-21T12:59:19.323Z,95033
2023-04-21T13:00:27.998Z,95021
2023-04-21T13:01:36.776Z,95028
2023-04-21T13:02:45.547Z,95021
2023-04-21T13:03:55.206Z,95023
2023-04-21T13:05:02.697Z,95017
2023-04-21T13:06:11.414Z,95023
2023-04-21T13:07:21.077Z,95016
2023-04-21T13:08:28.781Z,95019
2023-04-21T13:09:38.448Z,95018
2023-04-21T13:10:47.180Z,95024
2023-04-21T13:11:56.838Z,95018
2023-04-21T13:13:06.524Z,95022
2023-04-21T13:14:14.271Z,95021
2023-04-21T13:15:23.962Z,95013
2023-04-21T13:16:33.667Z,95015
2023-04-21T13:17:41.305Z,95010
2023-04-21T13:18:49.985Z,95009
2023-04-21T13:19:58.704Z,95005
2023-04-21T13:21:07.424Z,95005
2023-04-21T13:22:17.093Z,95007
2023-04-21T13:23:24.762Z,95001
2023-04-21T13:24:34.411Z,94999
2023-04-21T13:25:44.112Z,95004
2023-04-21T13:26:51.874Z,95005
2023-04-21T13:28:00.533Z,95001
2023-04-21T13:29:09.215Z,95009
2023-04-21T13:30:18.863Z,94997
2023-04-21T13:31:28.581Z,95000
2023-04-21T13:32:36.309Z,94996
2023-04-21T13:33:44.924Z,95005
2023-04-21T13:34:55.587Z,94996
2023-04-21T13:36:03.304Z,94999
2023-04-21T13:37:12.968Z,95002
2023-04-21T13:38:20.674Z,94999
2023-04-21T13:39:29.412Z,95000
2023-04-21T13:40:39.058Z,94998
2023-04-21T13:41:47.762Z,95003
2023-04-21T13:42:56.470Z,94996
2023-04-21T13:44:06.133Z,94999
2023-04-21T13:45:13.803Z,94993
2023-04-21T13:46:23.507Z,94995
2023-04-21T13:47:32.535Z,94995
2023-04-21T13:48:41.903Z,94992
2023-04-21T13:49:51.532Z,94989
2023-04-21T13:50:59.458Z,94987
2023-04-21T13:52:09.191Z,94991
2023-04-21T13:53:21.230Z,94986
2023-04-21T13:54:28.590Z,94980
2023-04-21T13:55:38.241Z,94984
2023-04-21T13:56:47.968Z,94977
2023-04-21T13:57:55.636Z,94980
2023-04-21T13:59:04.366Z,94978
2023-04-21T14:00:13.996Z,94977
2023-04-21T14:01:22.018Z,94977
2023-04-21T14:02:30.466Z,94972
2023-04-21T14:03:39.210Z,94967
2023-04-21T14:04:47.907Z,94972
2023-04-21T14:05:57.430Z,94972
2023-04-21T14:07:05.123Z,94976
2023-04-21T14:08:14.796Z,94971
2023-04-21T14:09:24.470Z,94972
2023-04-21T14:10:33.193Z,94973
2023-04-21T14:11:42.852Z,94976
2023-04-21T14:12:51.499Z,94975
2023-04-21T14:15:10.870Z,94973
2023-04-21T14:16:19.533Z,94972
2023-04-21T14:17:29.298Z,94968
2023-04-21T14:18:40.628Z,94973
2023-04-21T14:19:48.321Z,94969
2023-04-21T14:20:58.004Z,94968
2023-04-21T14:22:06.787Z,94969
2023-04-21T14:23:15.458Z,94965
2023-04-21T14:24:25.159Z,94961
2023-04-21T14:25:32.851Z,94961
2023-04-21T14:26:41.501Z,94965
2023-04-21T14:27:51.170Z,94961
2023-04-21T14:28:58.895Z,94965
2023-04-21T14:30:07.576Z,94959
2023-04-21T14:31:16.226Z,94955
2023-04-21T14:32:27.679Z,94956
2023-04-21T14:33:37.179Z,94950
2023-04-21T14:34:45.883Z,94952
2023-04-21T14:35:55.545Z,94953
2023-04-21T14:37:05.262Z,94952
2023-04-21T14:38:13.914Z,94952
2023-04-21T14:39:23.680Z,94953
2023-04-21T14:40:32.310Z,94951
2023-04-21T14:41:42.008Z,94953
2023-04-21T14:42:51.715Z,94953
2023-04-21T14:43:59.370Z,94949
2023-04-21T14:45:08.015Z,94944
2023-04-21T14:46:17.816Z,94943
2023-04-21T14:47:26.468Z,94943
2023-04-21T14:48:35.032Z,94939
2023-04-21T14:49:43.764Z,94942